sensor_id;sensor_type;location;lat;lon;timestamp;pressure;altitude;pressure_sealevel;temperature;humidity
20620;BME280;10469;42.720;23.252;2022-10-29T00:01:20;96015.75;;;9.60;100.00
20620;BME280;10469;42.720;23.252;2022-10-29T00:03:45;96023.56;;;9.61;100.00
20620;BME280;10469;42.720;23.252;2022-10-29T00:06:12;95999.22;;;9.49;100.00
20620;BME280;10469;42.720;23.252;2022-10-29T00:08:40;96014.28;;;9.50;100.00
20620;BME280;10469;42.720;23.252;2022-10-29T00:13:37;96004.16;;;9.39;100.00
20620;BME280;10469;42.720;23.252;2022-10-29T00:16:07;96013.41;;;9.37;100.00
20620;BME280;10469;42.720;23.252;2022-10-29T00:18:32;96009.47;;;9.26;100.00
20620;BME280;10469;42.720;23.252;2022-10-29T00:21:02;96015.63;;;9.26;100.00
20620;BME280;10469;42.720;23.252;2022-10-29T00:23:28;96006.09;;;9.11;100.00
20620;BME280;10469;42.720;23.252;2022-10-29T00:25:57;95988.78;;;9.00;100.00
20620;BME280;10469;42.720;23.252;2022-10-29T00:28:23;96003.63;;;9.09;100.00
20620;BME280;10469;42.720;23.252;2022-10-29T00:30:49;95989.63;;;9.07;100.00
20620;BME280;10469;42.720;23.252;2022-10-29T00:33:14;95970.44;;;8.97;100.00
20620;BME280;10469;42.720;23.252;2022-10-29T00:38:20;95998.28;;;9.09;100.00
20620;BME280;10469;42.720;23.252;2022-10-29T00:40:45;95999.25;;;9.01;100.00
20620;BME280;10469;42.720;23.252;2022-10-29T00:43:15;96004.44;;;9.03;100.00
20620;BME280;10469;42.720;23.252;2022-10-29T00:45:45;96002.53;;;8.97;100.00
20620;BME280;10469;42.720;23.252;2022-10-29T00:48:12;95999.19;;;8.82;100.00
20620;BME280;10469;42.720;23.252;2022-10-29T00:50:37;95972.47;;;8.47;100.00
20620;BME280;10469;42.720;23.252;2022-10-29T00:53:03;95988.91;;;8.50;100.00
20620;BME280;10469;42.720;23.252;2022-10-29T00:55:29;95996.03;;;8.37;100.00
20620;BME280;10469;42.720;23.252;2022-10-29T00:57:56;95989.78;;;8.29;100.00
20620;BME280;10469;42.720;23.252;2022-10-29T01:00:22;95997.22;;;8.34;100.00
20620;BME280;10469;42.720;23.252;2022-10-29T01:02:47;95987.53;;;8.33;100.00
20620;BME280;10469;42.720;23.252;2022-10-29T01:05:16;95967.16;;;8.25;100.00
20620;BME280;10469;42.720;23.252;2022-10-29T01:07:44;95983.91;;;8.41;100.00
20620;BME280;10469;42.720;23.252;2022-10-29T01:10:10;95984.84;;;8.33;100.00
20620;BME280;10469;42.720;23.252;2022-10-29T01:13:01;95986.22;;;8.44;100.00
20620;BME280;10469;42.720;23.252;2022-10-29T01:16:02;95974.09;;;8.48;100.00
20620;BME280;10469;42.720;23.252;2022-10-29T01:18:38;95977.38;;;8.50;100.00
20620;BME280;10469;42.720;23.252;2022-10-29T01:21:24;95985.63;;;8.48;100.00
20620;BME280;10469;42.720;23.252;2022-10-29T01:32:14;95980.53;;;8.32;100.00
20620;BME280;10469;42.720;23.252;2022-10-29T01:34:49;95980.09;;;8.28;100.00
20620;BME280;10469;42.720;23.252;2022-10-29T01:40:03;95975.06;;;8.12;100.00
20620;BME280;10469;42.720;23.252;2022-10-29T01:42:38;95938.72;;;7.90;100.00
20620;BME280;10469;42.720;23.252;2022-10-29T01:45:26;95977.47;;;7.79;100.00
20620;BME280;10469;42.720;23.252;2022-10-29T01:48:00;95966.66;;;7.87;100.00
20620;BME280;10469;42.720;23.252;2022-10-29T01:50:27;95964.59;;;7.89;100.00
20620;BME280;10469;42.720;23.252;2022-10-29T01:52:53;95962.84;;;7.75;100.00
20620;BME280;10469;42.720;23.252;2022-10-29T01:55:22;95965.06;;;7.71;100.00
20620;BME280;10469;42.720;23.252;2022-10-29T01:57:53;95955.66;;;7.75;100.00
20620;BME280;10469;42.720;23.252;2022-10-29T02:00:19;95967.84;;;7.85;100.00
20620;BME280;10469;42.720;23.252;2022-10-29T02:03:03;95961.56;;;7.71;100.00
20620;BME280;10469;42.720;23.252;2022-10-29T02:08:24;95962.16;;;7.66;100.00
20620;BME280;10469;42.720;23.252;2022-10-29T02:11:03;95939.78;;;7.67;100.00
20620;BME280;10469;42.720;23.252;2022-10-29T02:13:33;95955.41;;;7.70;100.00
20620;BME280;10469;42.720;23.252;2022-10-29T02:16:04;95940.59;;;7.68;100.00
20620;BME280;10469;42.720;23.252;2022-10-29T02:18:39;95953.56;;;7.71;100.00
20620;BME280;10469;42.720;23.252;2022-10-29T02:21:05;95969.00;;;7.54;100.00
20620;BME280;10469;42.720;23.252;2022-10-29T02:23:30;95949.56;;;7.17;100.00
20620;BME280;10469;42.720;23.252;2022-10-29T02:25:55;95960.25;;;7.17;100.00
20620;BME280;10469;42.720;23.252;2022-10-29T02:28:24;95933.78;;;7.01;100.00
20620;BME280;10469;42.720;23.252;2022-10-29T02:30:49;95959.41;;;7.17;100.00
20620;BME280;10469;42.720;23.252;2022-10-29T02:33:15;95937.03;;;6.96;100.00
20620;BME280;10469;42.720;23.252;2022-10-29T02:35:40;95948.03;;;7.08;100.00
20620;BME280;10469;42.720;23.252;2022-10-29T02:38:06;95941.13;;;6.99;100.00
20620;BME280;10469;42.720;23.252;2022-10-29T02:40:31;95951.06;;;7.05;100.00
20620;BME280;10469;42.720;23.252;2022-10-29T02:42:56;95949.25;;;6.91;100.00
20620;BME280;10469;42.720;23.252;2022-10-29T02:45:22;95947.16;;;6.86;100.00
20620;BME280;10469;42.720;23.252;2022-10-29T02:47:47;95943.66;;;6.86;100.00
20620;BME280;10469;42.720;23.252;2022-10-29T02:50:13;95952.47;;;6.86;100.00
20620;BME280;10469;42.720;23.252;2022-10-29T02:52:38;95949.78;;;7.01;100.00
20620;BME280;10469;42.720;23.252;2022-10-29T02:55:04;95947.06;;;6.79;100.00
20620;BME280;10469;42.720;23.252;2022-10-29T02:57:30;95942.13;;;6.76;100.00
20620;BME280;10469;42.720;23.252;2022-10-29T02:59:55;95945.03;;;6.82;100.00
20620;BME280;10469;42.720;23.252;2022-10-29T03:02:20;95952.41;;;6.79;100.00
20620;BME280;10469;42.720;23.252;2022-10-29T03:04:46;95951.94;;;6.76;100.00
20620;BME280;10469;42.720;23.252;2022-10-29T03:07:11;95950.22;;;6.68;100.00
20620;BME280;10469;42.720;23.252;2022-10-29T03:09:37;95955.44;;;6.76;100.00
20620;BME280;10469;42.720;23.252;2022-10-29T03:12:02;95954.16;;;6.72;100.00
20620;BME280;10469;42.720;23.252;2022-10-29T03:14:28;95939.94;;;6.65;100.00
20620;BME280;10469;42.720;23.252;2022-10-29T03:16:53;95962.06;;;6.81;100.00
20620;BME280;10469;42.720;23.252;2022-10-29T03:19:19;95941.22;;;6.69;100.00
20620;BME280;10469;42.720;23.252;2022-10-29T03:21:44;95943.09;;;6.90;100.00
20620;BME280;10469;42.720;23.252;2022-10-29T03:24:10;95943.91;;;6.91;100.00
20620;BME280;10469;42.720;23.252;2022-10-29T03:26:35;95939.22;;;6.93;100.00
20620;BME280;10469;42.720;23.252;2022-10-29T03:29:00;95936.75;;;6.91;100.00
20620;BME280;10469;42.720;23.252;2022-10-29T03:31:26;95943.03;;;6.84;100.00
20620;BME280;10469;42.720;23.252;2022-10-29T03:33:51;95936.06;;;6.83;100.00
20620;BME280;10469;42.720;23.252;2022-10-29T03:36:17;95937.47;;;7.00;100.00
20620;BME280;10469;42.720;23.252;2022-10-29T03:38:42;95930.78;;;6.89;100.00
20620;BME280;10469;42.720;23.252;2022-10-29T03:41:08;95921.81;;;6.75;100.00
20620;BME280;10469;42.720;23.252;2022-10-29T03:43:36;95940.72;;;6.81;100.00
20620;BME280;10469;42.720;23.252;2022-10-29T03:46:02;95936.31;;;6.88;100.00
20620;BME280;10469;42.720;23.252;2022-10-29T03:48:28;95930.97;;;6.88;100.00
20620;BME280;10469;42.720;23.252;2022-10-29T03:51:02;95931.44;;;6.76;100.00
20620;BME280;10469;42.720;23.252;2022-10-29T03:53:30;95929.53;;;6.70;100.00
20620;BME280;10469;42.720;23.252;2022-10-29T03:55:56;95916.22;;;6.56;100.00
20620;BME280;10469;42.720;23.252;2022-10-29T03:58:23;95907.66;;;6.60;100.00
20620;BME280;10469;42.720;23.252;2022-10-29T04:00:59;95936.06;;;6.68;100.00
20620;BME280;10469;42.720;23.252;2022-10-29T04:03:26;95933.84;;;6.71;100.00
20620;BME280;10469;42.720;23.252;2022-10-29T04:05:52;95933.22;;;6.69;100.00
20620;BME280;10469;42.720;23.252;2022-10-29T04:08:18;95937.53;;;6.70;100.00
20620;BME280;10469;42.720;23.252;2022-10-29T04:10:46;95935.03;;;6.69;100.00
20620;BME280;10469;42.720;23.252;2022-10-29T04:13:13;95934.16;;;6.47;100.00
20620;BME280;10469;42.720;23.252;2022-10-29T04:15:39;95930.31;;;6.49;100.00
20620;BME280;10469;42.720;23.252;2022-10-29T04:18:04;95929.31;;;6.36;100.00
20620;BME280;10469;42.720;23.252;2022-10-29T04:20:29;95940.31;;;6.47;100.00
20620;BME280;10469;42.720;23.252;2022-10-29T04:22:55;95950.53;;;6.44;100.00
20620;BME280;10469;42.720;23.252;2022-10-29T04:25:20;95937.75;;;6.24;100.00
20620;BME280;10469;42.720;23.252;2022-10-29T04:27:46;95936.81;;;6.17;100.00
20620;BME280;10469;42.720;23.252;2022-10-29T04:30:11;95955.75;;;6.37;100.00
20620;BME280;10469;42.720;23.252;2022-10-29T04:32:37;95933.63;;;6.22;100.00
20620;BME280;10469;42.720;23.252;2022-10-29T04:35:02;95954.94;;;6.37;100.00
20620;BME280;10469;42.720;23.252;2022-10-29T04:37:28;95951.16;;;6.31;100.00
20620;BME280;10469;42.720;23.252;2022-10-29T04:39:54;95957.75;;;6.20;100.00
20620;BME280;10469;42.720;23.252;2022-10-29T04:42:19;95968.06;;;6.23;100.00
20620;BME280;10469;42.720;23.252;2022-10-29T04:44:45;95963.75;;;6.37;100.00
20620;BME280;10469;42.720;23.252;2022-10-29T04:47:10;95968.59;;;6.34;100.00
20620;BME280;10469;42.720;23.252;2022-10-29T04:49:35;95946.41;;;6.26;100.00
20620;BME280;10469;42.720;23.252;2022-10-29T04:52:01;95967.88;;;6.10;100.00
20620;BME280;10469;42.720;23.252;2022-10-29T04:54:26;95935.44;;;5.92;100.00
20620;BME280;10469;42.720;23.252;2022-10-29T04:56:52;95952.16;;;6.00;100.00
20620;BME280;10469;42.720;23.252;2022-10-29T04:59:17;95948.84;;;5.98;100.00
20620;BME280;10469;42.720;23.252;2022-10-29T05:01:42;95945.63;;;6.03;100.00
20620;BME280;10469;42.720;23.252;2022-10-29T05:04:08;95948.94;;;6.20;100.00
20620;BME280;10469;42.720;23.252;2022-10-29T05:06:34;95940.75;;;6.66;100.00
20620;BME280;10469;42.720;23.252;2022-10-29T05:08:59;95959.22;;;7.40;100.00
20620;BME280;10469;42.720;23.252;2022-10-29T05:11:25;95943.28;;;8.24;100.00
20620;BME280;10469;42.720;23.252;2022-10-29T05:13:50;95949.94;;;8.35;100.00
20620;BME280;10469;42.720;23.252;2022-10-29T05:16:15;95954.75;;;9.48;100.00
20620;BME280;10469;42.720;23.252;2022-10-29T05:18:41;95940.75;;;10.39;100.00
20620;BME280;10469;42.720;23.252;2022-10-29T05:21:06;95938.31;;;11.41;100.00
20620;BME280;10469;42.720;23.252;2022-10-29T05:23:32;95936.66;;;12.28;100.00
20620;BME280;10469;42.720;23.252;2022-10-29T05:25:57;95936.72;;;12.83;100.00
20620;BME280;10469;42.720;23.252;2022-10-29T05:28:23;95935.59;;;13.99;100.00
20620;BME280;10469;42.720;23.252;2022-10-29T05:30:50;95940.34;;;14.51;100.00
20620;BME280;10469;42.720;23.252;2022-10-29T05:33:18;95929.03;;;15.87;100.00
20620;BME280;10469;42.720;23.252;2022-10-29T05:35:44;95938.41;;;15.96;93.24
20620;BME280;10469;42.720;23.252;2022-10-29T05:38:11;95931.94;;;17.25;85.76
20620;BME280;10469;42.720;23.252;2022-10-29T05:40:37;95938.50;;;17.07;76.69
20620;BME280;10469;42.720;23.252;2022-10-29T05:43:03;95919.09;;;18.18;71.46
20620;BME280;10469;42.720;23.252;2022-10-29T05:45:29;95938.81;;;16.21;80.45
20620;BME280;10469;42.720;23.252;2022-10-29T05:47:59;95943.63;;;14.65;92.09
20620;BME280;10469;42.720;23.252;2022-10-29T05:50:25;95959.25;;;13.97;100.00
20620;BME280;10469;42.720;23.252;2022-10-29T05:52:58;95956.25;;;14.88;96.16
20620;BME280;10469;42.720;23.252;2022-10-29T05:55:24;95952.44;;;13.53;100.00
20620;BME280;10469;42.720;23.252;2022-10-29T05:57:55;95957.19;;;13.69;100.00
20620;BME280;10469;42.720;23.252;2022-10-29T06:00:21;95962.03;;;13.79;100.00
20620;BME280;10469;42.720;23.252;2022-10-29T06:02:46;95958.72;;;15.01;93.28
20620;BME280;10469;42.720;23.252;2022-10-29T06:05:12;95952.25;;;15.02;88.15
20620;BME280;10469;42.720;23.252;2022-10-29T06:07:37;95957.56;;;14.50;91.24
20620;BME280;10469;42.720;23.252;2022-10-29T06:10:03;95954.88;;;14.73;90.38
20620;BME280;10469;42.720;23.252;2022-10-29T06:12:32;95958.13;;;15.79;85.33
20620;BME280;10469;42.720;23.252;2022-10-29T06:14:58;95950.59;;;17.21;73.76
20620;BME280;10469;42.720;23.252;2022-10-29T06:17:23;95949.94;;;17.80;69.69
20620;BME280;10469;42.720;23.252;2022-10-29T06:19:49;95968.06;;;18.01;67.16
20620;BME280;10469;42.720;23.252;2022-10-29T06:22:14;95964.81;;;17.77;67.48
20620;BME280;10469;42.720;23.252;2022-10-29T06:24:39;95957.44;;;18.00;64.87
20620;BME280;10469;42.720;23.252;2022-10-29T06:27:05;95968.19;;;18.17;64.75
20620;BME280;10469;42.720;23.252;2022-10-29T06:29:30;95967.22;;;18.97;59.87
20620;BME280;10469;42.720;23.252;2022-10-29T06:31:56;95942.41;;;16.10;70.23
20620;BME280;10469;42.720;23.252;2022-10-29T06:34:22;95954.09;;;17.00;69.16
20620;BME280;10469;42.720;23.252;2022-10-29T06:36:47;95963.75;;;18.05;64.81
20620;BME280;10469;42.720;23.252;2022-10-29T06:39:12;95963.69;;;17.51;65.62
20620;BME280;10469;42.720;23.252;2022-10-29T06:41:38;95965.50;;;17.90;64.22
20620;BME280;10469;42.720;23.252;2022-10-29T06:44:03;95972.06;;;17.72;64.70
20620;BME280;10469;42.720;23.252;2022-10-29T06:46:29;95971.44;;;17.43;65.52
20620;BME280;10469;42.720;23.252;2022-10-29T06:48:55;95952.53;;;17.48;64.87
20620;BME280;10469;42.720;23.252;2022-10-29T06:51:20;95959.69;;;17.32;65.71
20620;BME280;10469;42.720;23.252;2022-10-29T06:53:47;95971.16;;;17.00;67.91
20620;BME280;10469;42.720;23.252;2022-10-29T06:56:13;95966.72;;;17.11;68.96
20620;BME280;10469;42.720;23.252;2022-10-29T06:58:38;95960.44;;;17.27;65.59
20620;BME280;10469;42.720;23.252;2022-10-29T07:01:04;95970.91;;;17.41;66.83
20620;BME280;10469;42.720;23.252;2022-10-29T07:03:29;95950.97;;;18.01;62.63
20620;BME280;10469;42.720;23.252;2022-10-29T07:05:56;95956.91;;;18.62;62.35
20620;BME280;10469;42.720;23.252;2022-10-29T07:08:22;95956.94;;;19.04;59.50
20620;BME280;10469;42.720;23.252;2022-10-29T07:10:52;95976.25;;;18.07;62.54
20620;BME280;10469;42.720;23.252;2022-10-29T07:13:18;95975.47;;;16.79;68.25
20620;BME280;10469;42.720;23.252;2022-10-29T07:15:43;95978.59;;;17.49;66.04
20620;BME280;10469;42.720;23.252;2022-10-29T07:18:09;95984.94;;;19.05;61.04
20620;BME280;10469;42.720;23.252;2022-10-29T07:20:37;95978.28;;;18.53;63.05
20620;BME280;10469;42.720;23.252;2022-10-29T07:23:03;95967.94;;;17.42;65.38
20620;BME280;10469;42.720;23.252;2022-10-29T07:25:29;95985.16;;;17.75;65.24
20620;BME280;10469;42.720;23.252;2022-10-29T07:28:04;95988.03;;;18.82;62.12
20620;BME280;10469;42.720;23.252;2022-10-29T07:30:30;95968.75;;;19.30;61.26
20620;BME280;10469;42.720;23.252;2022-10-29T07:32:55;95973.97;;;18.95;62.21
20620;BME280;10469;42.720;23.252;2022-10-29T07:35:21;95968.28;;;19.54;58.71
20620;BME280;10469;42.720;23.252;2022-10-29T07:37:46;95957.56;;;20.00;57.54
20620;BME280;10469;42.720;23.252;2022-10-29T07:40:12;95970.28;;;21.47;53.25
20620;BME280;10469;42.720;23.252;2022-10-29T07:42:37;95966.09;;;22.25;51.01
20620;BME280;10469;42.720;23.252;2022-10-29T07:45:03;95965.16;;;19.88;53.72
20620;BME280;10469;42.720;23.252;2022-10-29T07:47:28;95959.22;;;20.37;52.78
20620;BME280;10469;42.720;23.252;2022-10-29T07:49:54;95958.72;;;20.65;53.32
20620;BME280;10469;42.720;23.252;2022-10-29T07:52:19;95966.56;;;17.89;60.14
20620;BME280;10469;42.720;23.252;2022-10-29T07:54:45;95962.75;;;21.84;53.96
20620;BME280;10469;42.720;23.252;2022-10-29T07:57:10;95952.22;;;22.16;50.91
20620;BME280;10469;42.720;23.252;2022-10-29T07:59:36;95952.72;;;20.78;50.97
20620;BME280;10469;42.720;23.252;2022-10-29T08:02:01;95962.78;;;20.27;54.25
20620;BME280;10469;42.720;23.252;2022-10-29T08:04:26;95966.94;;;18.29;60.10
20620;BME280;10469;42.720;23.252;2022-10-29T08:06:52;95947.97;;;19.77;59.63
20620;BME280;10469;42.720;23.252;2022-10-29T08:09:17;95942.34;;;20.09;56.41
20620;BME280;10469;42.720;23.252;2022-10-29T08:11:43;95940.44;;;20.20;55.66
20620;BME280;10469;42.720;23.252;2022-10-29T08:14:08;95948.28;;;21.83;51.03
20620;BME280;10469;42.720;23.252;2022-10-29T08:16:33;95947.19;;;21.14;51.44
20620;BME280;10469;42.720;23.252;2022-10-29T08:18:59;95947.81;;;20.86;52.25
20620;BME280;10469;42.720;23.252;2022-10-29T08:21:25;95945.00;;;21.11;53.15
20620;BME280;10469;42.720;23.252;2022-10-29T08:23:50;95946.34;;;22.33;49.88
20620;BME280;10469;42.720;23.252;2022-10-29T08:26:16;95946.19;;;21.65;51.50
20620;BME280;10469;42.720;23.252;2022-10-29T08:28:41;95946.97;;;20.19;54.17
20620;BME280;10469;42.720;23.252;2022-10-29T08:31:08;95934.72;;;20.47;53.33
20620;BME280;10469;42.720;23.252;2022-10-29T08:33:33;95934.69;;;20.93;53.01
20620;BME280;10469;42.720;23.252;2022-10-29T08:35:59;95936.91;;;20.70;54.01
20620;BME280;10469;42.720;23.252;2022-10-29T08:38:27;95935.06;;;21.46;52.23
20620;BME280;10469;42.720;23.252;2022-10-29T08:46:44;95923.63;;;21.98;51.35
20620;BME280;10469;42.720;23.252;2022-10-29T08:49:37;95925.69;;;21.67;50.79
20620;BME280;10469;42.720;23.252;2022-10-29T08:52:10;95920.72;;;21.10;53.07
20620;BME280;10469;42.720;23.252;2022-10-29T08:54:40;95919.13;;;19.66;57.21
20620;BME280;10469;42.720;23.252;2022-10-29T08:57:13;95898.31;;;21.23;53.92
20620;BME280;10469;42.720;23.252;2022-10-29T09:02:37;95911.28;;;23.27;48.30
20620;BME280;10469;42.720;23.252;2022-10-29T09:05:05;95902.03;;;22.99;48.85
20620;BME280;10469;42.720;23.252;2022-10-29T09:10:30;95906.44;;;22.37;50.67
20620;BME280;10469;42.720;23.252;2022-10-29T09:18:39;95890.88;;;21.49;52.53
20620;BME280;10469;42.720;23.252;2022-10-29T09:26:57;95889.19;;;23.62;47.76
20620;BME280;10469;42.720;23.252;2022-10-29T09:32:22;95889.13;;;21.68;50.54
20620;BME280;10469;42.720;23.252;2022-10-29T09:34:56;95886.75;;;21.57;52.04
20620;BME280;10469;42.720;23.252;2022-10-29T09:37:32;95874.97;;;22.69;50.29
20620;BME280;10469;42.720;23.252;2022-10-29T09:40:02;95884.16;;;22.20;50.26
20620;BME280;10469;42.720;23.252;2022-10-29T09:42:35;95870.91;;;23.57;48.83
20620;BME280;10469;42.720;23.252;2022-10-29T09:45:05;95877.78;;;23.36;48.34
20620;BME280;10469;42.720;23.252;2022-10-29T09:48:04;95870.00;;;23.24;48.72
20620;BME280;10469;42.720;23.252;2022-10-29T09:53:03;95862.03;;;22.50;49.37
20620;BME280;10469;42.720;23.252;2022-10-29T09:55:43;95860.53;;;23.97;47.38
20620;BME280;10469;42.720;23.252;2022-10-29T09:58:18;95854.44;;;23.62;47.31
20620;BME280;10469;42.720;23.252;2022-10-29T10:00:44;95843.00;;;23.17;48.16
20620;BME280;10469;42.720;23.252;2022-10-29T10:05:35;95837.88;;;24.10;45.89
20620;BME280;10469;42.720;23.252;2022-10-29T10:08:10;95833.91;;;24.16;46.15
20620;BME280;10469;42.720;23.252;2022-10-29T10:10:54;95829.28;;;24.91;44.07
20620;BME280;10469;42.720;23.252;2022-10-29T10:13:23;95819.97;;;27.13;40.11
20620;BME280;10469;42.720;23.252;2022-10-29T10:15:51;95807.75;;;25.25;42.54
20620;BME280;10469;42.720;23.252;2022-10-29T10:18:20;95812.13;;;24.99;42.23
20620;BME280;10469;42.720;23.252;2022-10-29T10:21:04;95803.31;;;25.16;42.37
20620;BME280;10469;42.720;23.252;2022-10-29T10:29:03;95787.31;;;27.72;37.59
20620;BME280;10469;42.720;23.252;2022-10-29T10:31:29;95788.22;;;26.75;39.42
20620;BME280;10469;42.720;23.252;2022-10-29T10:33:54;95774.16;;;26.46;39.74
20620;BME280;10469;42.720;23.252;2022-10-29T10:36:24;95783.06;;;25.12;42.27
20620;BME280;10469;42.720;23.252;2022-10-29T10:38:55;95777.69;;;24.93;43.08
20620;BME280;10469;42.720;23.252;2022-10-29T10:41:26;95770.50;;;24.23;43.97
20620;BME280;10469;42.720;23.252;2022-10-29T10:43:56;95772.91;;;25.62;42.58
20620;BME280;10469;42.720;23.252;2022-10-29T10:46:24;95765.69;;;25.16;42.97
20620;BME280;10469;42.720;23.252;2022-10-29T10:49:19;95760.88;;;26.79;39.88
20620;BME280;10469;42.720;23.252;2022-10-29T10:51:52;95748.41;;;27.47;38.67
20620;BME280;10469;42.720;23.252;2022-10-29T11:03:03;95739.09;;;27.00;38.55
20620;BME280;10469;42.720;23.252;2022-10-29T11:05:28;95729.44;;;28.62;37.44
20620;BME280;10469;42.720;23.252;2022-10-29T11:08:05;95731.69;;;30.12;34.46
20620;BME280;10469;42.720;23.252;2022-10-29T11:10:58;95719.59;;;30.49;34.34
20620;BME280;10469;42.720;23.252;2022-10-29T11:13:30;95716.81;;;32.44;31.37
20620;BME280;10469;42.720;23.252;2022-10-29T11:18:49;95715.09;;;28.78;34.93
20620;BME280;10469;42.720;23.252;2022-10-29T11:21:31;95703.25;;;28.30;35.67
20620;BME280;10469;42.720;23.252;2022-10-29T11:26:38;95695.44;;;27.42;36.19
20620;BME280;10469;42.720;23.252;2022-10-29T11:29:16;95703.56;;;26.41;38.07
20620;BME280;10469;42.720;23.252;2022-10-29T11:31:57;95688.91;;;25.47;39.65
20620;BME280;10469;42.720;23.252;2022-10-29T11:37:12;95677.59;;;27.31;36.03
20620;BME280;10469;42.720;23.252;2022-10-29T11:39:51;95678.84;;;28.11;35.43
20620;BME280;10469;42.720;23.252;2022-10-29T11:42:19;95676.28;;;27.54;35.89
20620;BME280;10469;42.720;23.252;2022-10-29T11:44:44;95666.41;;;27.62;35.65
20620;BME280;10469;42.720;23.252;2022-10-29T11:50:35;95659.25;;;29.02;33.91
20620;BME280;10469;42.720;23.252;2022-10-29T11:53:43;95665.53;;;29.32;33.26
20620;BME280;10469;42.720;23.252;2022-10-29T12:13:16;95636.13;;;27.36;34.44
20620;BME280;10469;42.720;23.252;2022-10-29T12:15:26;95628.75;;;26.62;35.99
20620;BME280;10469;42.720;23.252;2022-10-29T12:21:03;95617.81;;;27.05;35.68
20620;BME280;10469;42.720;23.252;2022-10-29T12:31:52;95619.25;;;27.02;34.64
20620;BME280;10469;42.720;23.252;2022-10-29T12:39:32;95611.69;;;25.04;37.90
20620;BME280;10469;42.720;23.252;2022-10-29T12:42:27;95618.03;;;24.55;38.53
20620;BME280;10469;42.720;23.252;2022-10-29T12:45:13;95613.56;;;24.03;40.17
20620;BME280;10469;42.720;23.252;2022-10-29T12:48:38;95611.47;;;23.54;41.20
20620;BME280;10469;42.720;23.252;2022-10-29T12:56:26;95606.53;;;22.00;43.97
20620;BME280;10469;42.720;23.252;2022-10-29T12:58:56;95602.41;;;22.26;43.31
20620;BME280;10469;42.720;23.252;2022-10-29T13:09:28;95592.13;;;21.70;45.29
20620;BME280;10469;42.720;23.252;2022-10-29T13:12:00;95590.31;;;21.61;45.70
20620;BME280;10469;42.720;23.252;2022-10-29T13:17:03;95592.50;;;21.29;45.45
20620;BME280;10469;42.720;23.252;2022-10-29T13:25:50;95585.66;;;20.98;46.63
20620;BME280;10469;42.720;23.252;2022-10-29T13:30:43;95578.50;;;21.07;46.78
20620;BME280;10469;42.720;23.252;2022-10-29T13:36:09;95575.50;;;21.67;46.24
20620;BME280;10469;42.720;23.252;2022-10-29T13:41:19;95575.00;;;21.36;46.76
20620;BME280;10469;42.720;23.252;2022-10-29T13:46:32;95576.88;;;21.06;47.85
20620;BME280;10469;42.720;23.252;2022-10-29T13:49:02;95570.72;;;21.24;47.83
20620;BME280;10469;42.720;23.252;2022-10-29T13:51:34;95571.59;;;20.86;48.06
20620;BME280;10469;42.720;23.252;2022-10-29T13:54:14;95568.31;;;20.84;48.58
20620;BME280;10469;42.720;23.252;2022-10-29T13:59:53;95547.09;;;20.80;49.36
20620;BME280;10469;42.720;23.252;2022-10-29T14:08:07;95562.41;;;21.05;48.49
20620;BME280;10469;42.720;23.252;2022-10-29T14:18:31;95558.31;;;20.74;50.13
20620;BME280;10469;42.720;23.252;2022-10-29T14:21:02;95557.59;;;20.58;49.94
20620;BME280;10469;42.720;23.252;2022-10-29T14:23:30;95555.66;;;20.64;50.06
20620;BME280;10469;42.720;23.252;2022-10-29T14:26:00;95555.59;;;20.74;50.21
20620;BME280;10469;42.720;23.252;2022-10-29T14:28:32;95557.75;;;20.77;50.30
20620;BME280;10469;42.720;23.252;2022-10-29T14:31:04;95553.25;;;20.57;50.77
20620;BME280;10469;42.720;23.252;2022-10-29T14:33:35;95549.94;;;20.65;51.06
20620;BME280;10469;42.720;23.252;2022-10-29T14:41:08;95551.22;;;20.28;52.19
20620;BME280;10469;42.720;23.252;2022-10-29T14:43:34;95559.69;;;20.27;52.30
20620;BME280;10469;42.720;23.252;2022-10-29T14:46:26;95558.28;;;20.35;51.06
20620;BME280;10469;42.720;23.252;2022-10-29T14:49:11;95554.50;;;20.30;50.98
20620;BME280;10469;42.720;23.252;2022-10-29T14:51:40;95537.16;;;20.11;51.45
20620;BME280;10469;42.720;23.252;2022-10-29T14:54:18;95554.81;;;20.19;51.55
20620;BME280;10469;42.720;23.252;2022-10-29T14:56:47;95550.75;;;20.21;51.63
20620;BME280;10469;42.720;23.252;2022-10-29T14:59:18;95550.16;;;20.24;51.87
20620;BME280;10469;42.720;23.252;2022-10-29T15:01:46;95542.91;;;20.10;51.99
20620;BME280;10469;42.720;23.252;2022-10-29T15:04:21;95553.81;;;20.04;52.30
20620;BME280;10469;42.720;23.252;2022-10-29T15:06:48;95545.44;;;19.86;52.73
20620;BME280;10469;42.720;23.252;2022-10-29T15:09:15;95551.19;;;19.84;53.09
20620;BME280;10469;42.720;23.252;2022-10-29T15:11:58;95545.53;;;19.70;53.53
20620;BME280;10469;42.720;23.252;2022-10-29T15:14:32;95561.03;;;19.54;54.95
20620;BME280;10469;42.720;23.252;2022-10-29T15:16:59;95546.94;;;19.47;55.26
20620;BME280;10469;42.720;23.252;2022-10-29T15:19:25;95549.38;;;19.34;55.49
20620;BME280;10469;42.720;23.252;2022-10-29T15:21:51;95561.91;;;19.35;56.13
20620;BME280;10469;42.720;23.252;2022-10-29T15:24:19;95554.31;;;19.32;55.96
20620;BME280;10469;42.720;23.252;2022-10-29T15:27:04;95559.75;;;19.11;57.25
20620;BME280;10469;42.720;23.252;2022-10-29T15:29:35;95551.63;;;19.01;58.16
20620;BME280;10469;42.720;23.252;2022-10-29T15:32:03;95564.66;;;18.94;58.82
20620;BME280;10469;42.720;23.252;2022-10-29T15:34:35;95553.53;;;18.85;56.60
20620;BME280;10469;42.720;23.252;2022-10-29T15:42:31;95568.44;;;18.62;50.77
20620;BME280;10469;42.720;23.252;2022-10-29T15:47:32;95563.81;;;18.52;50.03
20620;BME280;10469;42.720;23.252;2022-10-29T15:49:58;95571.13;;;18.42;53.65
20620;BME280;10469;42.720;23.252;2022-10-29T15:52:29;95548.28;;;18.38;54.32